Time;durP1;ratioP1;P1;durP2;ratioP2;P2;SDS_P1;SDS_P2;PMS_P1;PMS_P2;Temp;Humidity;BMP_temperature;BMP_pressure;BME280_temperature;BME280_humidity;BME280_pressure;Samples;Min_cycle;Max_cycle;Signal;HPM_P1;HPM_P2
2022/03/06 00:00:13;;;;;;;12.40;8.93;;;;;;;;;;4986193;28;20465;-56
2022/03/06 00:02:39;;;;;;;14.43;9.60;;;;;;;;;;4983026;28;20426;-56
2022/03/06 00:05:06;;;;;;;14.83;11.13;;;;;;;;;;4980817;28;20505;-56
2022/03/06 00:07:32;;;;;;;17.67;9.90;;;;;;;;;;4980484;28;20415;-56
2022/03/06 00:09:58;;;;;;;13.40;9.47;;;;;;;;;;4983954;28;20429;-57
2022/03/06 00:12:24;;;;;;;15.53;10.00;;;;;;;;;;4984033;28;20520;-56
2022/03/06 00:14:50;;;;;;;18.73;9.27;;;;;;;;;;4981072;28;20985;-56
2022/03/06 00:17:16;;;;;;;18.13;10.47;;;;;;;;;;4983595;28;20434;-56
2022/03/06 00:19:43;;;;;;;12.27;8.43;;;;;;;;;;4964631;28;20446;-56
2022/03/06 00:22:09;;;;;;;12.93;8.83;;;;;;;;;;4983685;28;20840;-56
2022/03/06 00:24:35;;;;;;;14.30;10.10;;;;;;;;;;4983218;28;20422;-56
2022/03/06 00:27:01;;;;;;;11.23;8.03;;;;;;;;;;4980468;28;20485;-56
2022/03/06 00:29:27;;;;;;;17.30;10.27;;;;;;;;;;4980443;28;20430;-56
2022/03/06 00:31:53;;;;;;;16.83;10.67;;;;;;;;;;4966875;28;20449;-56
2022/03/06 00:34:19;;;;;;;18.27;10.30;;;;;;;;;;4983695;28;20441;-56
2022/03/06 00:36:45;;;;;;;18.10;9.53;;;;;;;;;;4981423;28;20528;-56
2022/03/06 00:39:11;;;;;;;17.17;9.37;;;;;;;;;;4980027;28;20475;-56
2022/03/06 00:41:37;;;;;;;10.97;8.00;;;;;;;;;;4980934;28;20466;-56
2022/03/06 00:44:03;;;;;;;8.27;7.20;;;;;;;;;;4983600;28;20926;-56
2022/03/06 00:46:29;;;;;;;13.20;8.27;;;;;;;;;;4983412;28;20770;-57
2022/03/06 00:48:55;;;;;;;10.73;9.50;;;;;;;;;;4983547;28;20425;-56
2022/03/06 00:51:21;;;;;;;14.93;8.77;;;;;;;;;;4983863;28;20848;-56
2022/03/06 00:53:47;;;;;;;11.70;8.20;;;;;;;;;;4982289;28;20423;-56
2022/03/06 00:56:13;;;;;;;16.73;9.20;;;;;;;;;;4983089;28;20426;-57
2022/03/06 00:58:39;;;;;;;12.77;9.37;;;;;;;;;;4983304;28;20497;-56
2022/03/06 01:01:06;;;;;;;13.33;9.90;;;;;;;;;;4983222;28;20458;-56
2022/03/06 01:03:32;;;;;;;11.50;8.73;;;;;;;;;;4982816;28;20422;-56
2022/03/06 01:05:58;;;;;;;14.87;9.63;;;;;;;;;;4979755;28;20423;-56
2022/03/06 01:08:25;;;;;;;13.47;9.17;;;;;;;;;;4965549;28;20848;-56
2022/03/06 01:10:52;;;;;;;17.23;9.10;;;;;;;;;;4980028;28;20423;-55
2022/03/06 01:13:19;;;;;;;14.63;9.80;;;;;;;;;;4979787;28;20435;-55
2022/03/06 01:15:45;;;;;;;10.50;8.53;;;;;;;;;;4981853;28;20470;-55
2022/03/06 01:18:11;;;;;;;10.93;8.63;;;;;;;;;;4983893;28;20427;-56
2022/03/06 01:20:39;;;;;;;13.00;9.13;;;;;;;;;;4985855;28;20796;-56
2022/03/06 01:23:06;;;;;;;11.90;8.30;;;;;;;;;;4987705;28;20445;-57
2022/03/06 01:25:32;;;;;;;13.63;9.70;;;;;;;;;;4986850;28;20429;-56
2022/03/06 01:27:59;;;;;;;16.67;9.80;;;;;;;;;;4986877;28;20429;-56
2022/03/06 01:30:25;;;;;;;10.17;8.43;;;;;;;;;;4986940;28;20422;-56
2022/03/06 01:32:52;;;;;;;9.70;7.83;;;;;;;;;;4983856;28;20486;-56
2022/03/06 01:35:18;;;;;;;12.80;9.47;;;;;;;;;;4983427;28;20517;-56
2022/03/06 01:37:45;;;;;;;14.87;8.83;;;;;;;;;;4985404;28;20522;-56
2022/03/06 01:40:11;;;;;;;10.10;8.87;;;;;;;;;;4986089;28;20426;-56
2022/03/06 01:42:44;;;;;;;10.87;8.47;;;;;;;;;;4986636;28;20438;-56
2022/03/06 01:45:11;;;;;;;9.60;7.83;;;;;;;;;;4986494;28;20425;-56
2022/03/06 01:47:40;;;;;;;19.03;9.63;;;;;;;;;;4985676;28;20430;-56
2022/03/06 01:50:07;;;;;;;12.00;8.13;;;;;;;;;;4983122;28;20426;-56
2022/03/06 01:52:33;;;;;;;10.57;7.57;;;;;;;;;;4966015;28;20473;-56
2022/03/06 01:54:59;;;;;;;14.00;8.50;;;;;;;;;;4986259;28;20512;-56
2022/03/06 01:57:26;;;;;;;11.77;8.10;;;;;;;;;;4976476;28;20429;-56
2022/03/06 01:59:52;;;;;;;14.33;8.07;;;;;;;;;;4983088;28;20438;-56
2022/03/06 02:02:19;;;;;;;12.57;8.13;;;;;;;;;;4982875;28;20482;-56
2022/03/06 02:04:45;;;;;;;13.00;9.53;;;;;;;;;;4985152;28;20859;-56
2022/03/06 02:07:11;;;;;;;10.77;8.27;;;;;;;;;;4984804;28;20837;-56
2022/03/06 02:09:37;;;;;;;11.53;8.67;;;;;;;;;;4983822;28;20434;-56
2022/03/06 02:12:22;;;;;;;10.03;8.17;;;;;;;;;;4986165;28;20509;-56
2022/03/06 02:14:52;;;;;;;10.23;9.17;;;;;;;;;;4965706;28;20797;-56
2022/03/06 02:17:18;;;;;;;11.77;8.70;;;;;;;;;;4982628;28;20422;-56
2022/03/06 02:19:55;;;;;;;9.13;8.20;;;;;;;;;;4984547;28;20462;-56
2022/03/06 02:22:28;;;;;;;11.90;8.93;;;;;;;;;;4985941;28;20559;-56
2022/03/06 02:24:54;;;;;;;13.80;9.77;;;;;;;;;;4982248;28;20431;-56
2022/03/06 02:27:20;;;;;;;16.37;9.83;;;;;;;;;;4982484;28;20524;-56
2022/03/06 02:29:47;;;;;;;16.13;8.27;;;;;;;;;;4984374;28;20455;-56
2022/03/06 02:32:14;;;;;;;13.30;9.10;;;;;;;;;;4993137;28;20476;-56
2022/03/06 02:34:42;;;;;;;16.43;8.90;;;;;;;;;;4984247;28;20550;-56
2022/03/06 02:37:08;;;;;;;12.23;9.43;;;;;;;;;;4964741;28;20435;-56
2022/03/06 02:39:34;;;;;;;9.57;8.60;;;;;;;;;;4982718;28;20878;-57
2022/03/06 02:42:03;;;;;;;11.67;8.13;;;;;;;;;;4985491;28;20968;-56
2022/03/06 02:44:29;;;;;;;10.20;8.43;;;;;;;;;;4968036;28;20861;-56
2022/03/06 02:46:56;;;;;;;9.93;7.90;;;;;;;;;;4985755;28;20422;-56
2022/03/06 02:49:22;;;;;;;13.77;9.03;;;;;;;;;;4978187;28;20895;-56
2022/03/06 02:51:48;;;;;;;12.10;8.47;;;;;;;;;;4984219;28;20497;-56
2022/03/06 02:54:17;;;;;;;10.07;7.97;;;;;;;;;;4985319;28;20422;-56
2022/03/06 02:56:43;;;;;;;13.47;9.20;;;;;;;;;;4985195;28;20924;-56
2022/03/06 02:59:09;;;;;;;12.27;8.93;;;;;;;;;;4985488;28;20426;-56
2022/03/06 03:01:40;;;;;;;11.00;7.90;;;;;;;;;;4984369;28;20465;-56
2022/03/06 03:04:06;;;;;;;10.93;8.20;;;;;;;;;;4986444;28;20434;-56
2022/03/06 03:06:32;;;;;;;12.33;8.70;;;;;;;;;;4984653;28;20943;-56
2022/03/06 03:08:59;;;;;;;9.77;8.30;;;;;;;;;;4981675;28;20424;-56
2022/03/06 03:11:25;;;;;;;13.50;8.97;;;;;;;;;;4981649;28;20438;-56
2022/03/06 03:13:51;;;;;;;10.90;8.67;;;;;;;;;;4984431;28;20442;-56
2022/03/06 03:16:17;;;;;;;12.63;8.47;;;;;;;;;;4984968;28;20920;-56
2022/03/06 03:18:43;;;;;;;11.37;8.07;;;;;;;;;;4983061;28;20901;-56
2022/03/06 03:21:09;;;;;;;13.10;9.57;;;;;;;;;;4968597;28;20477;-56
2022/03/06 03:23:35;;;;;;;12.67;8.90;;;;;;;;;;4983996;28;20453;-56
2022/03/06 03:26:01;;;;;;;12.77;9.10;;;;;;;;;;4981260;28;20415;-56
2022/03/06 03:28:27;;;;;;;16.10;9.07;;;;;;;;;;4981435;28;20419;-56
2022/03/06 03:30:53;;;;;;;10.77;8.63;;;;;;;;;;4984476;28;20433;-56
2022/03/06 03:33:19;;;;;;;11.10;8.40;;;;;;;;;;4984651;28;20795;-56
2022/03/06 03:35:45;;;;;;;11.03;8.33;;;;;;;;;;4982380;28;20425;-56
2022/03/06 03:38:11;;;;;;;10.80;8.50;;;;;;;;;;4982464;28;20541;-56
2022/03/06 03:40:37;;;;;;;10.40;8.90;;;;;;;;;;4983513;28;20566;-56
2022/03/06 03:43:03;;;;;;;12.43;8.47;;;;;;;;;;4984507;28;20967;-56
2022/03/06 03:45:29;;;;;;;11.43;8.93;;;;;;;;;;4966806;28;20804;-56
2022/03/06 03:47:55;;;;;;;9.87;8.70;;;;;;;;;;4984546;28;20545;-56
2022/03/06 03:50:21;;;;;;;11.73;8.53;;;;;;;;;;4984159;28;20530;-56
2022/03/06 03:52:47;;;;;;;14.83;10.53;;;;;;;;;;4981682;28;20974;-56
2022/03/06 03:55:13;;;;;;;8.70;7.70;;;;;;;;;;4980664;28;20474;-56
2022/03/06 03:57:39;;;;;;;16.63;8.60;;;;;;;;;;4988284;28;20438;-56
2022/03/06 04:00:06;;;;;;;12.97;9.17;;;;;;;;;;4980772;28;20506;-56
2022/03/06 04:02:32;;;;;;;15.00;9.40;;;;;;;;;;4981009;28;20415;-56
2022/03/06 04:04:58;;;;;;;12.37;8.57;;;;;;;;;;4966500;28;20483;-56
2022/03/06 04:07:25;;;;;;;13.87;9.77;;;;;;;;;;4980943;28;20423;-56
2022/03/06 04:09:51;;;;;;;11.80;9.20;;;;;;;;;;4983324;28;20514;-56
2022/03/06 04:12:17;;;;;;;11.63;8.37;;;;;;;;;;4983897;28;20430;-56
2022/03/06 04:14:43;;;;;;;20.33;8.43;;;;;;;;;;4986665;28;20449;-56
2022/03/06 04:17:09;;;;;;;13.93;8.90;;;;;;;;;;4980530;28;20210;-56
2022/03/06 04:19:35;;;;;;;18.53;9.60;;;;;;;;;;4963501;28;20442;-56
2022/03/06 04:22:01;;;;;;;13.60;9.57;;;;;;;;;;4983667;28;20866;-56
2022/03/06 04:24:27;;;;;;;11.53;9.10;;;;;;;;;;4983532;28;20430;-56
2022/03/06 04:26:53;;;;;;;10.93;9.20;;;;;;;;;;4963068;28;20431;-56
2022/03/06 04:29:19;;;;;;;10.53;8.20;;;;;;;;;;4980262;28;20449;-56
2022/03/06 04:31:45;;;;;;;12.93;9.47;;;;;;;;;;4970233;28;20442;-56
2022/03/06 04:34:11;;;;;;;14.60;8.47;;;;;;;;;;4980177;28;20433;-56
2022/03/06 04:36:37;;;;;;;10.07;8.40;;;;;;;;;;4963615;28;20438;-56
2022/03/06 04:39:04;;;;;;;12.73;9.90;;;;;;;;;;4983250;28;20518;-56
2022/03/06 04:41:30;;;;;;;12.10;8.67;;;;;;;;;;4962559;28;20477;-56
2022/03/06 04:43:56;;;;;;;12.57;8.90;;;;;;;;;;4983438;28;20516;-56
2022/03/06 04:46:22;;;;;;;12.00;8.53;;;;;;;;;;4983434;28;20481;-56
2022/03/06 04:48:48;;;;;;;10.87;8.70;;;;;;;;;;4975468;28;20450;-56
2022/03/06 04:51:14;;;;;;;12.07;10.10;;;;;;;;;;4983196;28;20880;-56
2022/03/06 04:53:40;;;;;;;16.00;11.07;;;;;;;;;;4981684;28;20980;-56
2022/03/06 04:56:07;;;;;;;16.87;9.50;;;;;;;;;;4983289;28;20453;-56
2022/03/06 04:58:34;;;;;;;12.73;8.00;;;;;;;;;;4983162;28;20419;-56
2022/03/06 05:01:00;;;;;;;14.90;9.97;;;;;;;;;;4983201;28;20468;-56
2022/03/06 05:03:26;;;;;;;13.50;9.93;;;;;;;;;;4968420;28;20840;-56
2022/03/06 05:05:52;;;;;;;13.30;9.70;;;;;;;;;;4980306;28;20423;-56
2022/03/06 05:08:18;;;;;;;15.57;9.87;;;;;;;;;;4982364;28;20430;-56
2022/03/06 05:10:44;;;;;;;12.53;9.43;;;;;;;;;;4981297;28;20905;-56
2022/03/06 05:13:10;;;;;;;15.60;11.03;;;;;;;;;;4979784;28;20438;-56
2022/03/06 05:15:36;;;;;;;14.50;9.80;;;;;;;;;;4980481;28;20430;-56
2022/03/06 05:18:02;;;;;;;13.60;10.30;;;;;;;;;;4983110;28;20487;-56
2022/03/06 05:20:28;;;;;;;12.03;10.77;;;;;;;;;;4984752;28;20652;-56
2022/03/06 05:22:54;;;;;;;24.97;11.97;;;;;;;;;;4980205;28;20427;-56
2022/03/06 05:25:22;;;;;;;13.40;10.13;;;;;;;;;;4979665;28;20412;-56
2022/03/06 05:27:48;;;;;;;12.87;9.70;;;;;;;;;;4982187;28;20222;-56
2022/03/06 05:30:14;;;;;;;14.70;10.30;;;;;;;;;;4982948;28;20785;-56
2022/03/06 05:32:41;;;;;;;11.70;9.37;;;;;;;;;;4981824;28;20430;-56
2022/03/06 05:35:07;;;;;;;13.93;10.00;;;;;;;;;;4979952;28;20425;-56
2022/03/06 05:37:33;;;;;;;15.47;10.50;;;;;;;;;;4964467;28;20801;-56
2022/03/06 05:39:59;;;;;;;13.03;10.43;;;;;;;;;;4983016;28;20426;-56
2022/03/06 05:42:25;;;;;;;15.40;11.00;;;;;;;;;;4965404;28;20462;-56
2022/03/06 05:44:51;;;;;;;10.83;9.60;;;;;;;;;;4979860;28;20770;-56
2022/03/06 05:47:17;;;;;;;21.73;10.40;;;;;;;;;;4979573;28;20445;-56
2022/03/06 05:49:43;;;;;;;13.27;10.23;;;;;;;;;;4981349;28;20961;-56
2022/03/06 05:52:09;;;;;;;15.03;9.33;;;;;;;;;;4982839;28;20468;-56
2022/03/06 05:54:35;;;;;;;16.30;11.47;;;;;;;;;;4982221;28;20434;-56
2022/03/06 05:57:01;;;;;;;12.50;10.60;;;;;;;;;;4988949;28;20438;-56
2022/03/06 05:59:28;;;;;;;11.30;10.10;;;;;;;;;;4982730;28;20477;-56
2022/03/06 06:01:54;;;;;;;12.27;10.47;;;;;;;;;;4962978;28;20536;-56
2022/03/06 06:04:20;;;;;;;14.77;10.63;;;;;;;;;;4983190;28;20910;-56
2022/03/06 06:06:46;;;;;;;12.00;10.73;;;;;;;;;;4983037;28;20433;-56
2022/03/06 06:09:12;;;;;;;14.67;10.97;;;;;;;;;;4982633;28;20480;-56
2022/03/06 06:11:38;;;;;;;13.33;9.90;;;;;;;;;;4985730;28;20501;-56
2022/03/06 06:14:04;;;;;;;12.60;9.20;;;;;;;;;;4986040;28;20777;-56
2022/03/06 06:16:31;;;;;;;15.20;10.33;;;;;;;;;;4968585;28;20449;-56
2022/03/06 06:18:57;;;;;;;14.50;11.10;;;;;;;;;;4982716;28;20851;-56
2022/03/06 06:21:24;;;;;;;13.23;10.70;;;;;;;;;;4982418;28;20467;-56
2022/03/06 06:23:50;;;;;;;18.20;11.30;;;;;;;;;;4985065;28;20426;-56
2022/03/06 06:26:17;;;;;;;16.57;11.20;;;;;;;;;;4988492;28;20437;-56
2022/03/06 06:28:43;;;;;;;21.43;11.80;;;;;;;;;;4990748;28;20466;-56
2022/03/06 06:31:09;;;;;;;20.80;12.63;;;;;;;;;;4988994;28;20470;-56
2022/03/06 06:33:35;;;;;;;17.80;12.07;;;;;;;;;;4989985;28;20442;-56
2022/03/06 06:36:02;;;;;;;19.57;11.30;;;;;;;;;;4980784;28;20434;-56
2022/03/06 06:38:28;;;;;;;22.50;13.17;;;;;;;;;;4987160;28;20497;-56
2022/03/06 06:40:55;;;;;;;21.20;12.83;;;;;;;;;;4985805;28;21039;-56
2022/03/06 06:43:21;;;;;;;18.00;12.50;;;;;;;;;;4985668;28;20517;-56
2022/03/06 06:45:47;;;;;;;16.60;12.33;;;;;;;;;;4988501;28;20462;-56
2022/03/06 06:48:13;;;;;;;16.00;12.00;;;;;;;;;;4987897;28;20441;-56
2022/03/06 06:50:39;;;;;;;17.07;11.57;;;;;;;;;;4988043;28;20446;-56
2022/03/06 06:53:05;;;;;;;17.23;12.53;;;;;;;;;;4983721;28;20454;-56
2022/03/06 06:55:33;;;;;;;21.00;12.70;;;;;;;;;;4988233;28;20435;-56
2022/03/06 06:57:59;;;;;;;17.43;13.13;;;;;;;;;;4988328;28;20524;-56
2022/03/06 07:00:25;;;;;;;14.90;11.30;;;;;;;;;;4984359;28;20510;-56
2022/03/06 07:02:51;;;;;;;22.57;13.40;;;;;;;;;;4989239;28;20449;-56
2022/03/06 07:05:17;;;;;;;20.97;10.10;;;;;;;;;;4994768;28;20429;-56
2022/03/06 07:07:43;;;;;;;15.73;11.13;;;;;;;;;;4985996;28;20442;-56
2022/03/06 07:10:09;;;;;;;16.57;12.20;;;;;;;;;;4982804;28;20420;-56
2022/03/06 07:12:48;;;;;;;15.40;11.40;;;;;;;;;;4978539;28;20825;-56
2022/03/06 07:15:15;;;;;;;18.53;11.70;;;8.70;99.90;;;;;;4988334;28;20520;-56
2022/03/06 07:17:41;;;;;;;19.23;11.93;;;2.50;99.90;;;;;;4992083;28;20430;-56
2022/03/06 07:20:08;;;;;;;15.23;11.20;;;2.50;99.90;;;;;;4984790;28;20454;-56
2022/03/06 07:22:35;;;;;;;17.03;11.37;;;2.50;99.90;;;;;;4980535;28;20474;-56
2022/03/06 07:25:01;;;;;;;15.83;11.70;;;;;;;;;;4986230;28;20434;-57
2022/03/06 07:27:27;;;;;;;14.23;10.97;;;;;;;;;;4982940;28;20446;-57
2022/03/06 07:29:53;;;;;;;16.07;11.13;;;;;;;;;;4992430;28;20426;-57
2022/03/06 07:32:19;;;;;;;20.63;13.00;;;;;;;;;;4987736;28;20521;-56
2022/03/06 07:34:45;;;;;;;16.97;12.40;;;;;;;;;;4984228;28;20493;-58
2022/03/06 07:37:11;;;;;;;13.70;11.27;;;;;;;;;;4986905;28;20442;-59
2022/03/06 07:39:36;;;;;;;23.43;13.00;;;;;;;;;;4988346;28;20605;-59
2022/03/06 07:42:03;;;;;;;15.97;11.73;;;;;;;;;;4992028;28;20461;-56
2022/03/06 07:44:29;;;;;;;16.80;11.10;;;;;;;;;;4984290;28;20426;-57
2022/03/06 07:46:55;;;;;;;15.43;12.17;;;;;;;;;;4981093;28;20442;-56
2022/03/06 07:49:20;;;;;;;14.90;11.33;;;;;;;;;;4980416;28;20473;-56
2022/03/06 07:51:46;;;;;;;17.30;12.03;;;;;;;;;;4982545;28;20506;-56
2022/03/06 07:54:14;;;;;;;17.50;12.23;;;;;;;;;;4965718;28;20446;-57
2022/03/06 07:56:44;;;;;;;18.27;12.83;;;;;;;;;;4981746;28;20983;-56
2022/03/06 07:59:10;;;;;;;23.70;11.80;;;;;;;;;;4977376;28;20913;-57
2022/03/06 08:01:36;;;;;;;12.57;11.13;;;;;;;;;;4982469;28;20462;-57
2022/03/06 08:04:02;;;;;;;14.80;11.97;;;;;;;;;;4979923;28;20813;-57
2022/03/06 08:06:28;;;;;;;17.93;12.53;;;;;;;;;;4982216;28;20434;-57
2022/03/06 08:08:54;;;;;;;16.30;11.93;;;;;;;;;;4984612;28;20429;-57
2022/03/06 08:11:19;;;;;;;18.20;12.53;;;2.60;99.90;;;;;;4982465;28;20946;-57
2022/03/06 08:13:45;;;;;;;20.27;13.77;;;;;;;;;;4983497;28;20195;-60
2022/03/06 08:16:11;;;;;;;15.73;13.33;;;;;;;;;;4984940;28;20191;-57
2022/03/06 08:18:37;;;;;;;18.00;13.00;;;;;;;;;;4982588;28;20199;-58
2022/03/06 08:21:04;;;;;;;17.17;13.23;;;;;;;;;;4981193;28;20466;-61
2022/03/06 08:23:30;;;;;;;21.80;14.23;;;;;;;;;;4980962;28;20439;-60
2022/03/06 08:25:56;;;;;;;15.17;13.53;;;;;;;;;;4984038;28;20441;-59
2022/03/06 08:28:22;;;;;;;16.43;12.70;;;;;;;;;;4982557;28;20530;-59
2022/03/06 08:30:48;;;;;;;15.00;11.53;;;;;;;;;;4983212;28;20438;-58
2022/03/06 08:33:14;;;;;;;15.40;12.43;;;;;;;;;;4981877;28;20797;-56
2022/03/06 08:35:40;;;;;;;17.40;12.37;;;;;;;;;;4982275;28;20270;-59
2022/03/06 08:38:07;;;;;;;14.27;12.00;;;;;;;;;;4982293;28;20438;-58
2022/03/06 08:40:33;;;;;;;15.40;11.60;;;;;;;;;;4968155;28;20982;-58
2022/03/06 08:42:58;;;;;;;15.80;12.33;;;;;;;;;;4979845;28;20446;-56
2022/03/06 08:45:25;;;;;;;13.80;12.33;;;;;;;;;;4983571;28;20522;-56
2022/03/06 08:47:51;;;;;;;15.80;12.87;;;;;;;;;;4970076;28;20187;-57
2022/03/06 08:50:17;;;;;;;18.53;14.07;;;;;;;;;;4981643;28;20946;-59
2022/03/06 08:52:43;;;;;;;19.50;12.77;;;;;;;;;;4949909;28;1047404;-57
2022/03/06 08:55:09;;;;;;;17.00;13.70;;;;;;;;;;4985417;28;20222;-57
2022/03/06 08:57:36;;;;;;;17.83;12.43;;;;;;;;;;4983619;28;20976;-57
2022/03/06 09:00:04;;;;;;;17.53;13.80;;;;;;;;;;4983695;28;20462;-56
2022/03/06 09:02:30;;;;;;;18.33;13.33;;;;;;;;;;4987662;28;20565;-54
2022/03/06 09:04:56;;;;;;;16.10;12.90;;;;;;;;;;4979755;28;20465;-55
2022/03/06 09:07:22;;;;;;;18.13;13.13;;;;;;;;;;4988729;28;20466;-56
2022/03/06 09:09:47;;;;;;;14.77;12.75;;;5.30;99.90;;;;;;4981581;28;20512;-56
2022/03/06 09:12:13;;;;;;;14.63;12.90;;;;;;;;;;4985235;28;20637;-56
2022/03/06 09:14:39;;;;;;;14.00;12.02;;;;;;;;;;4984607;28;21035;-58
2022/03/06 09:17:05;;;;;;;17.80;13.17;;;;;;;;;;4988591;28;20261;-58
2022/03/06 09:19:31;;;;;;;14.10;11.80;;;;;;;;;;4987020;28;20855;-61
2022/03/06 09:21:57;;;;;;;13.00;11.17;;;;;;;;;;4987197;28;20558;-58
2022/03/06 09:24:23;;;;;;;12.70;11.40;;;;;;;;;;4983478;28;20522;-59
2022/03/06 09:26:49;;;;;;;15.20;10.40;;;;;;;;;;4984763;28;20873;-57
2022/03/06 09:29:16;;;;;;;11.83;10.50;;;;;;;;;;4981140;28;20485;-58
2022/03/06 09:31:43;;;;;;;12.17;9.80;;;;;;;;;;4983682;28;20438;-58
2022/03/06 09:34:09;;;;;;;15.43;11.23;;;;;;;;;;4980436;28;20442;-59
2022/03/06 09:36:36;;;;;;;12.40;10.20;;;;;;;;;;4986732;28;20954;-59
2022/03/06 09:39:03;;;;;;;11.87;10.27;;;;;;;;;;4986560;28;20493;-59
2022/03/06 09:41:29;;;;;;;11.73;10.17;;;;;;;;;;4985774;28;20497;-59
2022/03/06 09:43:56;;;;;;;10.50;9.23;;;;;;;;;;4985155;28;20434;-59
2022/03/06 09:46:23;;;;;;;12.90;9.60;;;;;;;;;;4985152;28;20434;-59
2022/03/06 09:48:49;;;;;;;11.33;9.50;;;;;;;;;;4986781;28;21249;-58
2022/03/06 09:51:15;;;;;;;11.80;8.90;;;;;;;;;;4989273;28;20480;-59
2022/03/06 09:53:41;;;;;;;9.40;8.47;;;;;;;;;;4987866;28;20446;-59
2022/03/06 09:56:07;;;;;;;9.67;8.30;;;;;;;;;;4988812;28;20438;-60
2022/03/06 09:58:33;;;;;;;10.50;7.93;;;;;;;;;;4988760;28;20940;-60
2022/03/06 10:00:59;;;;;;;9.03;8.10;;;;;;;;;;4990456;28;20473;-58
2022/03/06 10:03:26;;;;;;;9.83;8.80;;;;;;;;;;4989568;28;20449;-59
2022/03/06 10:05:52;;;;;;;9.40;8.03;;;;;;;;;;4989790;28;20444;-58
2022/03/06 10:08:18;;;;;;;7.80;6.77;;;;;;;;;;4988793;28;20470;-57
2022/03/06 10:10:44;;;;;;;7.73;7.03;;;;;;;;;;4987083;28;20462;-60
2022/03/06 10:13:29;;;;;;;8.37;7.23;;;;;;;;;;4991196;28;20446;-59
2022/03/06 10:15:59;;;;;;;9.20;8.30;;;;;;;;;;4988112;28;20450;-59
2022/03/06 10:18:25;;;;;;;9.50;7.30;;;;;;;;;;4986932;28;20434;-59
2022/03/06 10:20:51;;;;;;;8.03;7.40;;;;;;;;;;4986469;28;20465;-59
2022/03/06 10:23:24;;;;;;;8.53;7.73;;;;;;;;;;4986748;28;20450;-59
2022/03/06 10:26:00;;;;;;;7.77;7.00;;;;;;;;;;4984349;28;20438;-59
2022/03/06 10:28:26;;;;;;;8.10;7.30;;;;;;;;;;4985884;28;20443;-58
2022/03/06 10:30:52;;;;;;;11.70;8.63;;;;;;;;;;4988512;28;20967;-59
2022/03/06 10:33:22;;;;;;;13.70;8.60;;;;;;;;;;4987599;28;20515;-59
2022/03/06 10:35:50;;;;;;;10.63;8.30;;;;;;;;;;4974031;28;20863;-60
2022/03/06 10:38:27;;;;;;;10.87;9.60;;;;;;;;;;4982218;28;20439;-56
2022/03/06 10:40:54;;;;;;;9.10;7.77;;;;;;;;;;4987497;28;20464;-59
2022/03/06 10:43:26;;;;;;;10.60;8.90;;;;;;;;;;4987184;28;20445;-58
2022/03/06 10:46:05;;;;;;;8.67;7.77;;;;;;;;;;4986702;28;20430;-59
2022/03/06 10:48:31;;;;;;;7.90;7.20;;;;;;;;;;4987136;28;20477;-57
2022/03/06 10:51:01;;;;;;;9.80;8.23;;;;;;;;;;4976221;28;20549;-57
2022/03/06 10:53:28;;;;;;;9.63;7.57;;;;;;;;;;4986898;28;20449;-58
2022/03/06 10:55:55;;;;;;;11.30;8.77;;;;;;;;;;4985248;28;20800;-58
2022/03/06 10:58:21;;;;;;;10.17;9.00;;;;;;;;;;4986233;28;20451;-58
2022/03/06 11:00:48;;;;;;;10.57;7.93;;;;;;;;;;4985805;28;20524;-56
2022/03/06 11:03:15;;;;;;;9.20;8.30;;;;;;;;;;4991880;28;20438;-57
2022/03/06 11:05:45;;;;;;;9.20;7.83;;;;;;;;;;4982250;28;20566;-59
2022/03/06 11:08:12;;;;;;;11.53;8.13;;;;;;;;;;4988404;28;20445;-58
2022/03/06 11:10:40;;;;;;;9.80;8.60;;;;;;;;;;4984193;28;20435;-59
2022/03/06 11:13:06;;;;;;;14.30;9.70;;;;;;;;;;4985739;28;20573;-57
2022/03/06 11:15:32;;;;;;;16.13;8.73;;;;;;;;;;4993083;28;20521;-57
2022/03/06 11:18:01;;;;;;;9.10;8.20;;;;;;;;;;4974609;28;20438;-57
2022/03/06 11:20:29;;;;;;;11.00;8.57;;;;;;;;;;4992666;28;20535;-57
2022/03/06 11:23:07;;;;;;;13.90;10.53;;;;;;;;;;4990196;28;20711;-57
2022/03/06 11:25:35;;;;;;;10.57;9.57;;;;;;;;;;4984937;28;20984;-56
2022/03/06 11:28:20;;;;;;;11.87;10.13;;;;;;;;;;4988398;28;20446;-56
2022/03/06 11:30:46;;;;;;;13.10;8.57;;;;;;;;;;4979515;28;20835;-56
2022/03/06 11:33:13;;;;;;;13.03;8.90;;;;;;;;;;4983981;28;20971;-57
2022/03/06 11:35:43;;;;;;;12.67;9.60;;;;;;;;;;4988018;28;20183;-60
2022/03/06 11:38:11;;;;;;;20.03;9.77;;;;;;;;;;4969728;28;20440;-59
2022/03/06 11:40:40;;;;;;;11.77;8.73;;;;;;;;;;4984047;28;20963;-59
2022/03/06 11:43:09;;;;;;;19.23;10.50;;;;;;;;;;4981762;28;20438;-58
2022/03/06 11:45:45;;;;;;;14.37;10.20;;;;;;;;;;4982018;28;20926;-56
2022/03/06 11:48:31;;;;;;;14.40;9.00;;;;;;;;;;4984868;28;20991;-56
2022/03/06 11:51:12;;;;;;;11.00;9.70;;;;;;;;;;4960467;28;20853;-57
2022/03/06 11:53:53;;;;;;;12.20;9.70;;;;;;;;;;4984426;28;20518;-58
2022/03/06 11:56:34;;;;;;;11.50;8.83;;;;;;;;;;4970777;28;20517;-57
2022/03/06 11:59:05;;;;;;;15.20;9.27;;;;;;;;;;4990014;28;20434;-58
2022/03/06 12:01:35;;;;;;;9.20;7.90;;;;;;;;;;4981507;28;20513;-59
2022/03/06 12:04:02;;;;;;;11.27;9.67;;;;;;;;;;4984492;28;20442;-59
2022/03/06 12:06:29;;;;;;;10.53;9.27;;;;;;;;;;4984411;28;20521;-56
2022/03/06 12:08:55;;;;;;;8.67;7.67;;;;;;;;;;4985380;28;20576;-58
2022/03/06 12:11:22;;;;;;;9.93;8.97;;;;;;;;;;4985197;28;20510;-57
2022/03/06 12:13:51;;;;;;;9.70;8.27;;;;;;;;;;4988255;28;20490;-57
2022/03/06 12:16:17;;;;;;;11.60;9.50;;;;;;;;;;4983709;28;20535;-57
2022/03/06 12:19:01;;;;;;;15.50;9.80;;;;;;;;;;4988888;28;20449;-56
2022/03/06 12:21:37;;;;;;;11.50;8.20;;;;;;;;;;4987249;28;21022;-57
2022/03/06 12:24:10;;;;;;;10.80;8.97;;;;;;;;;;4982417;28;20444;-57
2022/03/06 12:26:44;;;;;;;17.50;8.60;;;;;;;;;;4983213;28;20461;-57
2022/03/06 12:29:10;;;;;;;13.67;9.60;;;;;;;;;;4984576;28;20920;-57
2022/03/06 12:31:37;;;;;;;13.13;10.20;;;;;;;;;;4988369;28;20438;-57
2022/03/06 12:34:23;;;;;;;11.30;9.50;;;;;;;;;;4987522;28;20450;-57
2022/03/06 12:36:55;;;;;;;13.73;10.00;;;;;;;;;;4996753;28;20433;-57
2022/03/06 12:39:21;;;;;;;11.07;9.13;;;;;;;;;;4996120;28;20450;-57
2022/03/06 12:41:47;;;;;;;8.67;7.80;;;;;;;;;;4993190;28;20464;-58
2022/03/06 12:44:19;;;;;;;9.40;8.40;;;;;;;;;;4994221;28;20439;-58
2022/03/06 12:46:47;;;;;;;9.30;8.40;;;;;;;;;;4993859;28;20421;-57
2022/03/06 12:49:13;;;;;;;7.43;6.73;;;;;;;;;;4992769;28;20419;-58
2022/03/06 12:51:39;;;;;;;11.37;7.70;;;;;;;;;;4992446;28;20481;-57
2022/03/06 12:54:08;;;;;;;8.13;7.30;;;;;;;;;;4994183;28;20493;-57
2022/03/06 12:56:36;;;;;;;15.87;9.60;;;;;;;;;;4997201;28;20886;-57
2022/03/06 12:59:07;;;;;;;12.70;9.20;;;;;;;;;;4995625;28;20859;-57
2022/03/06 13:01:37;;;;;;;14.30;8.83;;;;;;;;;;4992342;28;20811;-57
2022/03/06 13:04:03;;;;;;;12.27;7.50;;;;;;;;;;4991686;28;20785;-57
2022/03/06 13:06:30;;;;;;;7.03;6.33;;;;;;;;;;5005991;28;20429;-58
2022/03/06 13:08:56;;;;;;;9.50;7.03;;;;;;;;;;4991936;28;20504;-58
2022/03/06 13:11:22;;;;;;;13.03;6.57;;;;;;;;;;4999872;28;20508;-58
2022/03/06 13:13:48;;;;;;;5.70;5.27;;;;;;;;;;4992261;28;20425;-56
2022/03/06 13:16:23;;;;;;;6.37;5.70;;;;;;;;;;4998212;28;20447;-56
2022/03/06 13:18:49;;;;;;;8.77;5.70;;;;;;;;;;4997358;28;20508;-57
2022/03/06 13:21:20;;;;;;;8.30;5.80;;;;;;;;;;4995306;28;20466;-59
2022/03/06 13:24:00;;;;;;;7.37;6.77;;;;;;;;;;5000371;28;20923;-56
2022/03/06 13:26:26;;;;;;;7.33;6.10;;;;;;;;;;4995187;28;20989;-57
2022/03/06 13:28:53;;;;;;;6.10;5.30;;;;;;;;;;4993311;28;20462;-57
2022/03/06 13:31:19;;;;;;;8.20;6.60;;;;;;;;;;4995847;28;20445;-57
2022/03/06 13:33:45;;;;;;;7.13;6.50;;;;;;;;;;4992030;28;20440;-57
2022/03/06 13:36:15;;;;;;;8.80;6.57;;;;;;;;;;4984668;28;20446;-57
2022/03/06 13:38:41;;;;;;;5.97;5.57;;;;;;;;;;4985183;28;20454;-58
2022/03/06 13:41:09;;;;;;;9.10;6.67;;;;;;;;;;4991984;28;20466;-58
2022/03/06 13:43:39;;;;;;;6.50;5.90;;;;;;;;;;4990143;28;20440;-58
2022/03/06 13:46:08;;;;;;;7.27;6.20;;;;;;;;;;4991663;28;20426;-57
2022/03/06 13:48:34;;;;;;;6.87;5.37;;;;;;;;;;4984289;28;20422;-56
2022/03/06 13:51:00;;;;;;;6.30;5.77;;;;;;;;;;4982585;28;20561;-55
2022/03/06 13:53:29;;;;;;;9.30;6.93;;;;;;;;;;4982150;28;20928;-55
2022/03/06 13:55:58;;;;;;;12.23;6.17;;;;;;;;;;4986245;28;20822;-55
2022/03/06 13:58:24;;;;;;;7.30;5.63;;;;;;;;;;4987458;28;20427;-55
2022/03/06 14:00:57;;;;;;;8.80;6.60;;;6.10;99.90;;;;;;4985396;28;20453;-57
2022/03/06 14:03:31;;;;;;;7.70;6.50;;;5.00;99.90;;;;;;4986387;28;20426;-57
2022/03/06 14:05:58;;;;;;;6.33;5.70;;;4.90;99.90;;;;;;4990559;28;20734;-56
2022/03/06 14:08:25;;;;;;;7.33;6.70;;;5.00;99.90;;;;;;4986213;28;20437;-56
2022/03/06 14:11:02;;;;;;;6.33;5.70;;;5.00;99.90;;;;;;4983704;28;20415;-57
2022/03/06 14:13:28;;;;;;;6.17;5.57;;;5.00;99.90;;;;;;4982954;28;20935;-56
2022/03/06 14:16:01;;;;;;;6.00;5.40;;;5.00;99.90;;;;;;4985907;28;20414;-56
2022/03/06 14:18:30;;;;;;;5.03;4.73;;;;;;;;;;4986102;28;20912;-56
2022/03/06 14:20:56;;;;;;;5.60;5.20;;;;;;;;;;4985938;28;20453;-56
2022/03/06 14:23:22;;;;;;;6.10;5.57;;;;;;;;;;4985959;28;20423;-56